首页
METAR-TAF:

METAR-TAF

机场 :

子午线, 密西西比州, 美国

纬度: 32-32-47N, 经度: 088-32-35W, 海拔: 96米

当前天气观测

该预报发布于59分钟前的04:56 UTC
静风
温度 24°C
湿度 89%
气压 1018 hPa
能見度: 12.9公里
天空无云

METAR: KNMM 270456Z AUTO 00000KT 8SM CLR 24/22 A3007 RMK AO2 SLP189 T02390222 $

时间: 00:55 (05:55 UTC)

预报

预报有效从26日的 23点(UTC)到 27日的 23点(UTC)
风速5节,风向多变
能见度10公里或以上
散云层高于5000英尺
成为
从 27日的 15点(UTC)到 27日的 17点(UTC)
风速6节,风向多变
能見度: 2811
散云层高于1500英尺
散云层高于2500英尺

TAF: KNMM 2623/2723 VRB05KT 9999 SCT050 QNH3004INS BECMG 2715/2717 VRB06KT 9999 SCT015 SCT025 QNH2997INS AUTOMATED SENSOR METWATCH 2702 TIL 2811 T22/2711Z T33/2720Z FN00205

超过4000个机场的气象观测和天气预报(METAR&TAF报告)。

可查询的气象台以黄色和红色小点在地图上表示。

将鼠标移到小点上方,可查看气象台名称。

然后点击查看天气观测和预报。

如需切换地图:点击带黑十字的绿色按钮放大地图;点击带横线的绿色按钮缩小地图;或者点击绿色箭头查看邻近地区的地图。


METAR-TAF: